Almirante Tamandare, Brazil
Current Conditions -  °F | °C
As of 8:00 PM on Tuesday 27 Jan 2015 (Local Time) from SBBI Reporting Station
Light Rain Light Rain  
Wind Chill: 75°   Ceiling: 3800
Heat Index: 75°   Visibility: 6mi
Dew Point: 64°   Wind: 7mph
Humidity: 69%   Direction: 110°ESE
Pressure: 30"   Gusts: NA
Location:  25.32°S, 49.31°W
Report Text: SBBI 272200Z 11006KT 9999 -RA FEW013 BKN038 24/18 Q1016
Loading
Personal Weather Stations






























Interactive Weather Map New forecast layout! Learn more

10-Day Weather Forecast

Advertisements
Track Severe Weather on mobile